sensor_id;sensor_type;location;lat;lon;timestamp;temperature;humidity
29817;DHT22;16805;52.956;5.906;2023-03-14T17:03:10;6.50;99.90
29817;DHT22;16805;52.956;5.906;2023-03-14T17:05:51;6.60;99.90
29817;DHT22;16805;52.956;5.906;2023-03-14T17:08:18;6.70;99.90
29817;DHT22;16805;52.956;5.906;2023-03-14T17:10:44;6.70;99.90
29817;DHT22;16805;52.956;5.906;2023-03-14T17:13:13;6.70;99.90
29817;DHT22;16805;52.956;5.906;2023-03-14T17:15:45;6.50;99.90
29817;DHT22;16805;52.956;5.906;2023-03-14T17:18:11;6.50;99.90
29817;DHT22;16805;52.956;5.906;2023-03-14T17:20:37;6.50;99.90
29817;DHT22;16805;52.956;5.906;2023-03-14T17:23:05;6.50;99.90
29817;DHT22;16805;52.956;5.906;2023-03-14T17:25:31;6.40;99.90
29817;DHT22;16805;52.956;5.906;2023-03-14T17:28:00;6.40;99.90
29817;DHT22;16805;52.956;5.906;2023-03-14T17:31:01;6.40;99.90
29817;DHT22;16805;52.956;5.906;2023-03-14T17:34:05;6.40;99.90
29817;DHT22;16805;52.956;5.906;2023-03-14T17:36:53;6.30;99.90
29817;DHT22;16805;52.956;5.906;2023-03-14T17:39:20;6.30;99.90
29817;DHT22;16805;52.956;5.906;2023-03-14T17:41:46;6.20;99.90
29817;DHT22;16805;52.956;5.906;2023-03-14T17:44:13;6.10;99.90
29817;DHT22;16805;52.956;5.906;2023-03-14T17:46:40;6.00;99.90
29817;DHT22;16805;52.956;5.906;2023-03-14T17:49:11;6.00;99.90
29817;DHT22;16805;52.956;5.906;2023-03-14T17:51:38;6.00;99.90
29817;DHT22;16805;52.956;5.906;2023-03-14T17:54:04;6.00;99.90
29817;DHT22;16805;52.956;5.906;2023-03-14T17:56:30;6.10;99.90
29817;DHT22;16805;52.956;5.906;2023-03-14T18:04:37;6.10;99.90
29817;DHT22;16805;52.956;5.906;2023-03-14T18:07:03;6.10;99.90
29817;DHT22;16805;52.956;5.906;2023-03-14T18:09:29;6.20;99.90
29817;DHT22;16805;52.956;5.906;2023-03-14T18:15:30;6.20;99.90
29817;DHT22;16805;52.956;5.906;2023-03-14T18:17:59;6.10;99.90
29817;DHT22;16805;52.956;5.906;2023-03-14T19:26:36;6.40;99.90
29817;DHT22;16805;52.956;5.906;2023-03-14T19:55:05;6.30;99.90
29817;DHT22;16805;52.956;5.906;2023-03-14T19:57:32;6.20;99.90
29817;DHT22;16805;52.956;5.906;2023-03-14T19:59:58;6.20;99.90
29817;DHT22;16805;52.956;5.906;2023-03-14T20:02:24;6.10;99.90
29817;DHT22;16805;52.956;5.906;2023-03-14T20:04:49;6.10;99.90
29817;DHT22;16805;52.956;5.906;2023-03-14T20:07:19;6.10;99.90
29817;DHT22;16805;52.956;5.906;2023-03-14T20:09:45;6.00;99.90
29817;DHT22;16805;52.956;5.906;2023-03-14T20:12:11;6.00;99.90
29817;DHT22;16805;52.956;5.906;2023-03-14T20:14:36;5.90;99.90
29817;DHT22;16805;52.956;5.906;2023-03-14T20:29:59;5.70;99.90
29817;DHT22;16805;52.956;5.906;2023-03-14T20:32:32;5.90;99.90
29817;DHT22;16805;52.956;5.906;2023-03-14T20:34:58;5.90;99.90
29817;DHT22;16805;52.956;5.906;2023-03-14T20:37:26;5.90;99.90
29817;DHT22;16805;52.956;5.906;2023-03-14T20:39:52;6.00;99.90
29817;DHT22;16805;52.956;5.906;2023-03-14T20:42:18;6.00;99.90
29817;DHT22;16805;52.956;5.906;2023-03-14T20:44:44;6.00;99.90
29817;DHT22;16805;52.956;5.906;2023-03-14T20:47:13;6.00;99.90
29817;DHT22;16805;52.956;5.906;2023-03-14T20:49:38;6.10;99.90
29817;DHT22;16805;52.956;5.906;2023-03-14T20:52:04;6.00;99.90
29817;DHT22;16805;52.956;5.906;2023-03-14T20:54:31;6.00;99.90
29817;DHT22;16805;52.956;5.906;2023-03-14T20:56:56;5.90;99.90
29817;DHT22;16805;52.956;5.906;2023-03-14T20:59:23;6.00;99.90
29817;DHT22;16805;52.956;5.906;2023-03-14T21:01:49;5.90;99.90
29817;DHT22;16805;52.956;5.906;2023-03-14T21:04:16;5.80;99.90
29817;DHT22;16805;52.956;5.906;2023-03-14T21:06:42;5.70;99.90
29817;DHT22;16805;52.956;5.906;2023-03-14T21:09:11;5.60;99.90
29817;DHT22;16805;52.956;5.906;2023-03-14T21:11:39;5.60;99.90
29817;DHT22;16805;52.956;5.906;2023-03-14T21:14:12;5.60;99.90
29817;DHT22;16805;52.956;5.906;2023-03-14T21:16:44;5.60;99.90
29817;DHT22;16805;52.956;5.906;2023-03-14T21:19:17;5.60;99.90
29817;DHT22;16805;52.956;5.906;2023-03-14T21:21:48;5.50;99.90
29817;DHT22;16805;52.956;5.906;2023-03-14T21:24:27;5.50;99.90
29817;DHT22;16805;52.956;5.906;2023-03-14T21:26:54;5.60;99.90
29817;DHT22;16805;52.956;5.906;2023-03-14T21:29:24;5.50;99.90
29817;DHT22;16805;52.956;5.906;2023-03-14T21:31:54;5.50;99.90
29817;DHT22;16805;52.956;5.906;2023-03-14T21:34:27;5.50;99.90
29817;DHT22;16805;52.956;5.906;2023-03-14T21:36:56;5.40;99.90
29817;DHT22;16805;52.956;5.906;2023-03-14T21:39:24;5.40;99.90
29817;DHT22;16805;52.956;5.906;2023-03-14T21:41:51;5.50;99.90
29817;DHT22;16805;52.956;5.906;2023-03-14T21:44:18;5.40;99.90
29817;DHT22;16805;52.956;5.906;2023-03-14T21:46:48;5.50;99.90
29817;DHT22;16805;52.956;5.906;2023-03-14T21:49:21;5.50;99.90
29817;DHT22;16805;52.956;5.906;2023-03-14T21:51:58;5.60;99.90
29817;DHT22;16805;52.956;5.906;2023-03-14T21:54:36;5.70;99.90
29817;DHT22;16805;52.956;5.906;2023-03-14T21:57:26;5.70;99.90
29817;DHT22;16805;52.956;5.906;2023-03-14T22:00:06;5.80;99.90
29817;DHT22;16805;52.956;5.906;2023-03-14T22:02:49;5.90;99.90
29817;DHT22;16805;52.956;5.906;2023-03-14T22:05:25;5.90;99.90
29817;DHT22;16805;52.956;5.906;2023-03-14T22:08:27;5.90;99.90
29817;DHT22;16805;52.956;5.906;2023-03-14T22:11:05;5.90;99.90
29817;DHT22;16805;52.956;5.906;2023-03-14T22:13:47;5.90;99.90
29817;DHT22;16805;52.956;5.906;2023-03-14T22:16:19;5.80;99.90
29817;DHT22;16805;52.956;5.906;2023-03-14T22:18:53;5.80;99.90
29817;DHT22;16805;52.956;5.906;2023-03-14T22:21:21;5.80;99.90
29817;DHT22;16805;52.956;5.906;2023-03-14T22:23:57;5.80;99.90
29817;DHT22;16805;52.956;5.906;2023-03-14T22:26:44;5.90;99.90
29817;DHT22;16805;52.956;5.906;2023-03-14T22:29:24;5.80;99.90
29817;DHT22;16805;52.956;5.906;2023-03-14T22:31:56;5.80;99.90
29817;DHT22;16805;52.956;5.906;2023-03-14T22:34:37;5.80;99.90
29817;DHT22;16805;52.956;5.906;2023-03-14T22:37:10;5.80;99.90
29817;DHT22;16805;52.956;5.906;2023-03-14T22:39:41;5.80;99.90
29817;DHT22;16805;52.956;5.906;2023-03-14T22:42:12;5.70;99.90
29817;DHT22;16805;52.956;5.906;2023-03-14T22:45:03;5.70;99.90
29817;DHT22;16805;52.956;5.906;2023-03-14T22:47:35;5.90;99.90
29817;DHT22;16805;52.956;5.906;2023-03-14T22:50:09;5.80;99.90
29817;DHT22;16805;52.956;5.906;2023-03-14T22:52:44;5.70;99.90
29817;DHT22;16805;52.956;5.906;2023-03-14T22:55:20;5.80;99.90
29817;DHT22;16805;52.956;5.906;2023-03-14T22:58:23;5.80;99.90
29817;DHT22;16805;52.956;5.906;2023-03-14T23:01:19;5.80;99.90
29817;DHT22;16805;52.956;5.906;2023-03-14T23:03:56;5.70;99.90
29817;DHT22;16805;52.956;5.906;2023-03-14T23:06:27;5.70;99.90
29817;DHT22;16805;52.956;5.906;2023-03-14T23:09:15;5.70;99.90
29817;DHT22;16805;52.956;5.906;2023-03-14T23:11:47;5.80;99.90
29817;DHT22;16805;52.956;5.906;2023-03-14T23:14:40;5.80;99.90
29817;DHT22;16805;52.956;5.906;2023-03-14T23:17:34;5.80;99.90
29817;DHT22;16805;52.956;5.906;2023-03-14T23:24:05;5.80;99.90
29817;DHT22;16805;52.956;5.906;2023-03-14T23:30:08;5.70;99.90
29817;DHT22;16805;52.956;5.906;2023-03-14T23:32:52;5.60;99.90
29817;DHT22;16805;52.956;5.906;2023-03-14T23:35:29;5.60;99.90
29817;DHT22;16805;52.956;5.906;2023-03-14T23:38:05;5.50;99.90
29817;DHT22;16805;52.956;5.906;2023-03-14T23:40:46;5.60;99.90
29817;DHT22;16805;52.956;5.906;2023-03-14T23:43:46;5.50;99.90
29817;DHT22;16805;52.956;5.906;2023-03-14T23:46:37;5.60;99.90
29817;DHT22;16805;52.956;5.906;2023-03-14T23:49:18;5.60;99.90
29817;DHT22;16805;52.956;5.906;2023-03-14T23:52:23;5.60;99.90
29817;DHT22;16805;52.956;5.906;2023-03-14T23:55:47;5.60;99.90
29817;DHT22;16805;52.956;5.906;2023-03-14T23:58:50;5.60;99.90
